Flight Track Log - Related Links

Times and Time Zones

All times are in EDT time to prevent confusion due to time zone crossing. See the DAL1562 flight status page for this flight to view local times or setup timezone preferences in your user account.

Time Position Orientation Groundspeed Altitude Reporting Facility
EDT Latitude Longitude Course Direction KTS MPH feet Rate Location/Type
Tue 04:55:02 PM 39.8758 -75.2200 303° West 161 185 600  Level FAA TRACON SMA TRACON (SMA)
Tue 04:56:02 PM 39.8983 -75.1517 67° East 237 273 3,000 2,519 Climbing FAA TRACON SMA TRACON (SMA)
Tue 04:56:23 PM 39.9142 -75.1367 36° Northeast 235 270 4,000 2,780 Climbing FAA TRACON SMA TRACON (SMA)
Tue 04:56:43 PM 39.9311 -75.1200 37° Northeast 250 288 4,900 3,600 Climbing FAA TRACON SMA TRACON (SMA)
Tue 04:57:00 PM 40.1020 -75.4520 323° Northwest  Level FlightAware Approximate
Tue 04:57:03 PM 39.9564 -75.1000 31° Northeast 281 323 6,400  Level FAA TRACON SMA TRACON (SMA)
Tue 04:57:23 PM 39.9792 -75.1025 355° North 273 314 7,500 3,300 Climbing FAA TRACON SMA TRACON (SMA)
Tue 04:57:43 PM 39.9981 -75.1208 323° Northwest 274 315 8,600 2,250 Climbing FAA TRACON SMA TRACON (SMA)
Tue 04:58:00 PM 40.1806 -75.5306 323° Northwest  Level FlightAware Approximate
Tue 04:58:03 PM 40.0139 -75.1508 305° West 273 314 9,000  Level FAA TRACON SMA TRACON (SMA)
Tue 04:58:23 PM 40.0281 -75.1769 305° West 268 308 9,000  Level FAA TRACON SMA TRACON (SMA)
Tue 04:58:43 PM 40.0400 -75.2006 303° West 267 307 9,000  Level FAA TRACON SMA TRACON (SMA)
Tue 04:59:00 PM 40.2547 -75.6070 311° West  Level FlightAware Approximate
Tue 04:59:03 PM 40.0556 -75.2314 303° West 268 308 9,000  Level FAA TRACON SMA TRACON (SMA)
Tue 04:59:23 PM 40.0681 -75.2561 303° West 265 305 9,300 2,250 Climbing FAA TRACON SMA TRACON (SMA)
Tue 04:59:43 PM 40.0839 -75.2878 303° West 271 312 10,500 2,550 Climbing FAA TRACON SMA TRACON (SMA)
Tue 05:00:00 PM 40.3192 -75.7051 303° West  Level FlightAware Approximate
Tue 05:00:03 PM 40.0975 -75.3144 304° West 290 334 11,000  Level FAA TRACON SMA TRACON (SMA)
Tue 05:00:23 PM 40.1133 -75.3447 304° West 339 390 11,000 1,000 Level FAA TRACON SMA TRACON (SMA)
Tue 05:01:03 PM 40.1514 -75.4206 303° West 361 415 12,000 1,800 Climbing FAA TRACON SMA TRACON (SMA)
Tue 05:01:23 PM 40.1678 -75.4533 303° West 362 417 12,800 1,950 Climbing FAA TRACON SMA TRACON (SMA)
Tue 05:01:43 PM 40.1889 -75.4961 303° West 364 419 13,300 2,250 Climbing FAA TRACON SMA TRACON (SMA)
Tue 05:02:03 PM 40.2069 -75.5303 305° West 368 423 14,300 3,000 Climbing FAA TRACON SMA TRACON (SMA)
Tue 05:02:23 PM 40.2250 -75.5647 304° West 372 428 15,300 3,150 Climbing FAA TRACON SMA TRACON (SMA)
Tue 05:02:43 PM 40.2519 -75.6050 311° West 383 441 16,400 2,550 Climbing FAA TRACON SMA TRACON (SMA)
Tue 05:03:03 PM 40.2733 -75.6375 311° West 389 448 17,000 900 Climbing FAA TRACON SMA TRACON (SMA)
Tue 05:03:23 PM 40.2950 -75.6694 312° West 394 453 17,000  Level FAA TRACON SMA TRACON (SMA)
Tue 05:03:43 PM 40.3233 -75.7125 311° West 394 453 17,000  Level FAA TRACON SMA TRACON (SMA)
Tue 05:04:03 PM 40.3450 -75.7458 310° West 391 450 17,000  Level FAA TRACON SMA TRACON (SMA)
Tue 05:04:23 PM 40.3667 -75.7789 311° West 391 450 17,000  Level FAA TRACON SMA TRACON (SMA)
Tue 05:04:43 PM 40.3719 -75.7872 310° West 390 449 17,000 202 Level FAA TRACON SMA TRACON (SMA)
Tue 05:05:52 PM 40.4519 -75.9558 302° West 391 450 17,300 1,246 Climbing New York Center
Tue 05:06:53 PM 40.4725 -76.0994 281° West 396 456 19,700 2,420 Climbing New York Center
Tue 05:07:51 PM 40.4950 -76.2483 281° West 410 472 22,100 2,471 Climbing New York Center
Tue 05:08:52 PM 40.5172 -76.3950 281° West 415 478 24,600 2,016 Climbing New York Center
Tue 05:09:53 PM 40.5431 -76.5500 282° West 420 483 26,200 1,983 Climbing New York Center
Tue 05:10:53 PM 40.5772 -76.7033 286° West 431 496 28,600 3,254 Climbing New York Center
Tue 05:11:51 PM 40.6119 -76.8375 289° West 419 482 32,600 2,622 Climbing New York Center
Tue 05:12:52 PM 40.6492 -76.9667 291° West 397 457 33,800 1,190 Climbing New York Center
Tue 05:13:52 PM 40.6858 -77.0986 290° West 392 451 35,000 992 Climbing New York Center
Tue 05:14:53 PM 40.7200 -77.2386 288° West 392 451 35,800 850 Climbing New York Center
Tue 05:15:52 PM 40.7550 -77.3625 290° West 397 457 36,700 746 Climbing New York Center
Tue 05:17:50 PM 40.8281 -77.6494 289° West 410 472 38,000 438 Climbing Cleveland Center
Tue 05:18:50 PM 40.8650 -77.7933 289° West 410 472 38,000  Level Cleveland Center
Tue 05:19:50 PM 40.9017 -77.9403 288° West 420 483 38,000  Level Cleveland Center
Tue 05:20:50 PM 40.9731 -78.0447 312° West 397 457 38,000 -200 Level Cleveland Center
Tue 05:21:50 PM 41.0361 -78.1689 304° West 383 441 37,600 -900 Descending Cleveland Center
Tue 05:22:50 PM 41.0492 -78.3006 278° West 386 444 36,200 -800 Descending Cleveland Center
Tue 05:23:50 PM 41.0664 -78.4350 280° West 386 444 36,000 -100 Descending Cleveland Center
Tue 05:24:50 PM 41.0897 -78.5692 283° West 376 433 36,000 -150 Level Cleveland Center
Tue 05:25:50 PM 41.1086 -78.6981 281° West 370 426 35,700 -650 Descending Cleveland Center
Tue 05:26:50 PM 41.1272 -78.8272 281° West 370 426 34,700 -850 Descending Cleveland Center
Tue 05:27:50 PM 41.1481 -78.9589 282° West 370 426 34,000 -350 Descending Cleveland Center
Tue 05:28:50 PM 41.1706 -79.0853 283° West 370 426 34,000 -400 Level Cleveland Center
Tue 05:29:50 PM 41.1953 -79.2172 284° West 370 426 33,200 -500 Descending Cleveland Center
Tue 05:30:50 PM 41.2217 -79.3436 286° West 365 420 33,000 -500 Descending Cleveland Center
Tue 05:31:50 PM 41.2356 -79.4758 278° West 365 420 32,200 -850 Descending Cleveland Center
Tue 05:32:50 PM 41.2389 -79.6167 272° West 370 426 31,300 -900 Descending Cleveland Center
Tue 05:33:50 PM 41.2461 -79.7631 274° West 385 443 30,400 -950 Descending Cleveland Center
Tue 05:34:50 PM 41.2533 -79.9064 274° West 391 450 29,400 -950 Descending Cleveland Center
Tue 05:35:50 PM 41.2647 -80.0556 276° West 396 456 28,500 -700 Descending Cleveland Center
Tue 05:36:50 PM 41.2714 -80.2047 273° West 408 470 28,000 -250 Descending Cleveland Center
Tue 05:37:50 PM 41.2781 -80.3567 273° West 408 470 28,000  Level Cleveland Center
Tue 05:38:50 PM 41.2867 -80.5058 274° West 408 470 28,000  Level Cleveland Center
Tue 05:39:50 PM 41.2950 -80.6550 274° West 403 464 28,000  Level Cleveland Center
Tue 05:40:50 PM 41.3011 -80.8069 273° West 410 472 28,000  Level Cleveland Center
Tue 05:41:50 PM 41.3089 -80.9592 274° West 410 472 28,000 -150 Level Cleveland Center
Tue 05:42:50 PM 41.3167 -81.1250 274° West 410 472 27,700 -650 Descending Cleveland Center
Tue 05:43:50 PM 41.3222 -81.2717 273° West 405 466 26,700 -942 Descending Cleveland Center
Tue 05:44:51 PM 41.3275 -81.3933 273° West 405 466 25,800 -1,000 Descending Cleveland Center
Tue 05:45:50 PM 41.3367 -81.5483 275° West 400 460 24,700 -908 Descending Cleveland Center
Tue 05:46:50 PM 41.3417 -81.6867 273° West 394 453 24,000 -350 Descending Cleveland Center
Tue 05:47:50 PM 41.3489 -81.8194 274° West 383 441 24,000  Level Cleveland Center
Tue 05:48:50 PM 41.3533 -81.9744 272° West 383 441 24,000 -400 Level Cleveland Center
Tue 05:49:50 PM 41.3681 -82.1075 278° West 383 441 23,200 -850 Descending Cleveland Center
Tue 05:50:50 PM 41.4292 -82.2281 304° West 373 429 22,300 -992 Descending Cleveland Center
Tue 05:51:51 PM 41.4939 -82.3461 306° West 388 447 21,200 -1,750 Descending Cleveland Center
Tue 05:52:50 PM 41.5567 -82.4644 305° West 388 447 18,800 -2,471 Descending Cleveland Center
Tue 05:53:50 PM 41.6175 -82.5775 306° West 388 447 16,300 -2,400 Descending Cleveland Center
Tue 05:54:50 PM 41.6758 -82.6875 305° West 383 441 14,000 -2,150 Descending Cleveland Center
Tue 05:55:50 PM 41.7344 -82.7925 307° West 371 427 12,000 -1,000 Descending Cleveland Center
Tue 05:56:50 PM 41.8036 -82.8783 317° Northwest 353 406 12,000  Level Cleveland Center
Tue 05:57:50 PM 41.8747 -82.9647 318° Northwest 347 399 12,000  Level Cleveland Center
Tue 05:58:53 PM 41.9561 -83.0597 319° Northwest 350 403 12,000  Level Cleveland Center
Tue 05:59:50 PM 42.0211 -83.1378 318° Northwest 347 399 12,000 -49 Level Cleveland Center
Tue 06:00:56 PM 42.0883 -83.2106 321° Northwest 260 299 11,900 -684 Descending Cleveland Center
Tue 06:01:44 PM 42.1519 -83.2078 North 270 311 10,700 -1,324 Descending FAA TRACON SMA TRACON (SMA)
Tue 06:02:04 PM 42.1742 -83.2069 North 259 298 10,400 -1,050 Descending FAA TRACON SMA TRACON (SMA)
Tue 06:02:24 PM 42.1961 -83.2058 North 256 295 10,000 -1,500 Descending FAA TRACON SMA TRACON (SMA)
Tue 06:02:44 PM 42.2206 -83.1906 25° Northeast 251 289 9,400 -1,500 Descending FAA TRACON SMA TRACON (SMA)
Tue 06:03:04 PM 42.2394 -83.1769 28° Northeast 248 285 9,000 -1,317 Descending FAA TRACON SMA TRACON (SMA)
Tue 06:03:25 PM 42.2581 -83.1633 28° Northeast 260 299 8,500 -1,650 Descending FAA TRACON SMA TRACON (SMA)
Tue 06:03:44 PM 42.2808 -83.1442 32° Northeast 255 293 7,900 -1,538 Descending FAA TRACON SMA TRACON (SMA)
Tue 06:04:04 PM 42.2992 -83.1294 31° Northeast 251 289 7,500 -1,050 Descending FAA TRACON SMA TRACON (SMA)
Tue 06:04:24 PM 42.3172 -83.1158 29° Northeast 244 281 7,200 -1,050 Descending FAA TRACON SMA TRACON (SMA)
Tue 06:04:44 PM 42.3383 -83.1000 29° Northeast 232 267 6,800 -1,350 Descending FAA TRACON SMA TRACON (SMA)
Tue 06:05:04 PM 42.3547 -83.0881 28° Northeast 223 257 6,300 -1,200 Descending FAA TRACON SMA TRACON (SMA)
Tue 06:05:24 PM 42.3700 -83.0781 26° Northeast 217 250 6,000 -1,350 Descending FAA TRACON SMA TRACON (SMA)
Tue 06:05:44 PM 42.3931 -83.0747 North 220 253 5,400 -1,459 Descending FAA TRACON SMA TRACON (SMA)
Tue 06:06:01 PM 42.4017 -83.0886 310° West 194 223 5,100 -400 Descending Cleveland Center
Tue 06:06:44 PM 42.4231 -83.1325 303° West 181 208 5,000 -95 Descending FAA TRACON SMA TRACON (SMA)
Tue 06:07:04 PM 42.4200 -83.1500 257° West 163 188 5,000  Level FAA TRACON SMA TRACON (SMA)
Tue 06:07:24 PM 42.4144 -83.1711 250° West 159 183 5,000  Level FAA TRACON SMA TRACON (SMA)
Tue 06:07:43 PM 42.4097 -83.1883 250° West 160 184 5,000 -450 Level FAA TRACON SMA TRACON (SMA)
Tue 06:08:04 PM 42.3975 -83.2014 218° Southwest 157 181 4,700 -878 Descending FAA TRACON SMA TRACON (SMA)
Tue 06:08:24 PM 42.3839 -83.2133 213° Southwest 162 186 4,400 -750 Descending FAA TRACON SMA TRACON (SMA)
Tue 06:08:44 PM 42.3717 -83.2222 208° Southwest 164 189 4,200 -900 Descending FAA TRACON SMA TRACON (SMA)
Tue 06:09:04 PM 42.3564 -83.2333 208° Southwest 169 194 3,800 -1,050 Descending FAA TRACON SMA TRACON (SMA)
Tue 06:09:24 PM 42.3442 -83.2417 207° Southwest 171 197 3,500 -1,050 Descending FAA TRACON SMA TRACON (SMA)
Tue 06:09:44 PM 42.3300 -83.2528 210° Southwest 162 186 3,100 -900 Descending FAA TRACON SMA TRACON (SMA)
Tue 06:10:04 PM 42.3186 -83.2608 208° Southwest 159 183 2,900 -750 Descending FAA TRACON SMA TRACON (SMA)
Tue 06:10:24 PM 42.3044 -83.2717 209° Southwest 157 181 2,600 -900 Descending FAA TRACON SMA TRACON (SMA)
Tue 06:10:44 PM 42.2919 -83.2808 208° Southwest 138 159 2,300 -900 Descending FAA TRACON SMA TRACON (SMA)

Login

Don't have an account? Register now (free) for customized features, flight alerts, and more!